sensor_id;sensor_type;location;lat;lon;timestamp;P1;durP1;ratioP1;P2;durP2;ratioP2
5412;SDS011;2729;50.056;8.678;2023-01-01T00:00:03;343.13;;;169.40;;
5412;SDS011;2729;50.056;8.678;2023-01-01T00:02:35;215.50;;;104.60;;
5412;SDS011;2729;50.056;8.678;2023-01-01T00:05:01;131.80;;;65.63;;
5412;SDS011;2729;50.056;8.678;2023-01-01T00:07:28;100.27;;;43.73;;
5412;SDS011;2729;50.056;8.678;2023-01-01T00:09:54;77.33;;;40.33;;
5412;SDS011;2729;50.056;8.678;2023-01-01T00:12:39;63.23;;;30.20;;
5412;SDS011;2729;50.056;8.678;2023-01-01T00:15:05;53.83;;;28.43;;
5412;SDS011;2729;50.056;8.678;2023-01-01T00:17:31;54.63;;;26.53;;
5412;SDS011;2729;50.056;8.678;2023-01-01T00:19:57;40.83;;;24.57;;
5412;SDS011;2729;50.056;8.678;2023-01-01T00:22:23;46.83;;;23.70;;
5412;SDS011;2729;50.056;8.678;2023-01-01T00:24:50;43.57;;;22.17;;
5412;SDS011;2729;50.056;8.678;2023-01-01T00:27:16;43.37;;;22.67;;
5412;SDS011;2729;50.056;8.678;2023-01-01T00:29:42;54.87;;;24.37;;
5412;SDS011;2729;50.056;8.678;2023-01-01T00:32:08;45.47;;;21.50;;
5412;SDS011;2729;50.056;8.678;2023-01-01T00:34:36;43.97;;;23.17;;
5412;SDS011;2729;50.056;8.678;2023-01-01T00:37:02;47.07;;;23.67;;
5412;SDS011;2729;50.056;8.678;2023-01-01T00:39:28;50.97;;;24.63;;
5412;SDS011;2729;50.056;8.678;2023-01-01T00:41:54;54.47;;;23.90;;
5412;SDS011;2729;50.056;8.678;2023-01-01T00:44:23;53.10;;;25.10;;
5412;SDS011;2729;50.056;8.678;2023-01-01T00:46:49;51.90;;;24.80;;
5412;SDS011;2729;50.056;8.678;2023-01-01T00:49:15;56.53;;;28.43;;
5412;SDS011;2729;50.056;8.678;2023-01-01T00:51:40;57.43;;;28.70;;
5412;SDS011;2729;50.056;8.678;2023-01-01T00:54:06;51.87;;;27.50;;
5412;SDS011;2729;50.056;8.678;2023-01-01T00:56:32;56.17;;;28.00;;
5412;SDS011;2729;50.056;8.678;2023-01-01T00:58:59;42.87;;;24.20;;
5412;SDS011;2729;50.056;8.678;2023-01-01T01:01:25;55.30;;;27.40;;
5412;SDS011;2729;50.056;8.678;2023-01-01T01:03:51;60.47;;;27.97;;
5412;SDS011;2729;50.056;8.678;2023-01-01T01:06:17;54.80;;;28.53;;
5412;SDS011;2729;50.056;8.678;2023-01-01T01:08:45;61.70;;;28.40;;
5412;SDS011;2729;50.056;8.678;2023-01-01T01:13:42;66.87;;;27.90;;
5412;SDS011;2729;50.056;8.678;2023-01-01T01:16:11;64.63;;;29.97;;
5412;SDS011;2729;50.056;8.678;2023-01-01T01:18:55;59.87;;;29.80;;
5412;SDS011;2729;50.056;8.678;2023-01-01T01:21:23;59.57;;;30.30;;
5412;SDS011;2729;50.056;8.678;2023-01-01T01:23:50;58.80;;;31.63;;
5412;SDS011;2729;50.056;8.678;2023-01-01T01:26:21;56.33;;;30.90;;
5412;SDS011;2729;50.056;8.678;2023-01-01T01:28:48;65.77;;;31.73;;
5412;SDS011;2729;50.056;8.678;2023-01-01T01:31:15;60.70;;;32.40;;
5412;SDS011;2729;50.056;8.678;2023-01-01T01:33:44;66.33;;;31.77;;
5412;SDS011;2729;50.056;8.678;2023-01-01T01:36:11;60.67;;;29.97;;
5412;SDS011;2729;50.056;8.678;2023-01-01T01:38:38;63.47;;;31.60;;
5412;SDS011;2729;50.056;8.678;2023-01-01T01:41:05;66.80;;;33.77;;
5412;SDS011;2729;50.056;8.678;2023-01-01T01:46:09;62.93;;;33.03;;
5412;SDS011;2729;50.056;8.678;2023-01-01T01:48:40;74.93;;;34.50;;
5412;SDS011;2729;50.056;8.678;2023-01-01T01:51:08;86.67;;;39.77;;
5412;SDS011;2729;50.056;8.678;2023-01-01T01:53:37;86.10;;;41.93;;
5412;SDS011;2729;50.056;8.678;2023-01-01T01:56:09;101.47;;;48.17;;
5412;SDS011;2729;50.056;8.678;2023-01-01T01:58:40;113.30;;;55.10;;
5412;SDS011;2729;50.056;8.678;2023-01-01T02:01:06;106.63;;;49.50;;
5412;SDS011;2729;50.056;8.678;2023-01-01T02:06:14;100.43;;;48.57;;
5412;SDS011;2729;50.056;8.678;2023-01-01T02:08:40;112.17;;;51.30;;
5412;SDS011;2729;50.056;8.678;2023-01-01T02:11:06;95.20;;;44.03;;
5412;SDS011;2729;50.056;8.678;2023-01-01T02:13:37;91.03;;;43.33;;
5412;SDS011;2729;50.056;8.678;2023-01-01T02:16:05;81.27;;;38.17;;
5412;SDS011;2729;50.056;8.678;2023-01-01T02:18:38;75.50;;;37.17;;
5412;SDS011;2729;50.056;8.678;2023-01-01T02:24:14;62.30;;;34.20;;
5412;SDS011;2729;50.056;8.678;2023-01-01T02:32:14;104.77;;;51.63;;
5412;SDS011;2729;50.056;8.678;2023-01-01T02:37:22;92.80;;;47.77;;
5412;SDS011;2729;50.056;8.678;2023-01-01T02:39:54;99.67;;;44.80;;
5412;SDS011;2729;50.056;8.678;2023-01-01T02:42:23;85.23;;;40.70;;
5412;SDS011;2729;50.056;8.678;2023-01-01T02:44:53;91.60;;;45.10;;
5412;SDS011;2729;50.056;8.678;2023-01-01T02:47:22;84.17;;;40.87;;
5412;SDS011;2729;50.056;8.678;2023-01-01T02:49:52;82.57;;;40.33;;
5412;SDS011;2729;50.056;8.678;2023-01-01T02:52:30;80.97;;;42.47;;
5412;SDS011;2729;50.056;8.678;2023-01-01T02:55:12;90.30;;;42.93;;
5412;SDS011;2729;50.056;8.678;2023-01-01T02:58:02;88.13;;;38.63;;
5412;SDS011;2729;50.056;8.678;2023-01-01T03:01:03;87.07;;;40.27;;
5412;SDS011;2729;50.056;8.678;2023-01-01T03:03:38;81.57;;;38.13;;
5412;SDS011;2729;50.056;8.678;2023-01-01T03:06:14;77.47;;;36.00;;
5412;SDS011;2729;50.056;8.678;2023-01-01T03:14:16;71.03;;;36.20;;
5412;SDS011;2729;50.056;8.678;2023-01-01T03:17:23;71.37;;;34.37;;
5412;SDS011;2729;50.056;8.678;2023-01-01T03:20:01;70.17;;;33.93;;
5412;SDS011;2729;50.056;8.678;2023-01-01T03:22:33;73.17;;;32.60;;
5412;SDS011;2729;50.056;8.678;2023-01-01T03:25:03;74.63;;;35.00;;
5412;SDS011;2729;50.056;8.678;2023-01-01T03:27:43;52.73;;;27.90;;
5412;SDS011;2729;50.056;8.678;2023-01-01T03:30:13;62.77;;;33.37;;
5412;SDS011;2729;50.056;8.678;2023-01-01T03:32:54;63.67;;;33.30;;
5412;SDS011;2729;50.056;8.678;2023-01-01T03:35:25;70.33;;;32.03;;
5412;SDS011;2729;50.056;8.678;2023-01-01T03:37:55;63.87;;;31.80;;
5412;SDS011;2729;50.056;8.678;2023-01-01T03:40:27;48.40;;;26.80;;
5412;SDS011;2729;50.056;8.678;2023-01-01T03:42:59;55.60;;;28.40;;
5412;SDS011;2729;50.056;8.678;2023-01-01T03:45:37;49.67;;;22.57;;
5412;SDS011;2729;50.056;8.678;2023-01-01T03:48:07;51.40;;;25.13;;
5412;SDS011;2729;50.056;8.678;2023-01-01T03:53:20;58.13;;;26.93;;
5412;SDS011;2729;50.056;8.678;2023-01-01T03:56:13;34.80;;;19.43;;
5412;SDS011;2729;50.056;8.678;2023-01-01T03:58:55;52.70;;;26.13;;
5412;SDS011;2729;50.056;8.678;2023-01-01T04:01:39;58.13;;;27.43;;
5412;SDS011;2729;50.056;8.678;2023-01-01T04:04:09;54.30;;;26.97;;
5412;SDS011;2729;50.056;8.678;2023-01-01T04:06:40;49.93;;;23.20;;
5412;SDS011;2729;50.056;8.678;2023-01-01T04:09:08;53.50;;;25.23;;
5412;SDS011;2729;50.056;8.678;2023-01-01T04:11:39;38.57;;;19.63;;
5412;SDS011;2729;50.056;8.678;2023-01-01T04:14:30;48.37;;;24.03;;
5412;SDS011;2729;50.056;8.678;2023-01-01T04:17:03;36.33;;;17.90;;
5412;SDS011;2729;50.056;8.678;2023-01-01T04:19:30;33.80;;;16.40;;
5412;SDS011;2729;50.056;8.678;2023-01-01T04:21:56;27.67;;;14.33;;
5412;SDS011;2729;50.056;8.678;2023-01-01T04:24:23;23.93;;;12.80;;
5412;SDS011;2729;50.056;8.678;2023-01-01T04:26:52;30.70;;;16.03;;
5412;SDS011;2729;50.056;8.678;2023-01-01T04:29:19;27.47;;;14.07;;
5412;SDS011;2729;50.056;8.678;2023-01-01T04:31:45;27.13;;;13.07;;
5412;SDS011;2729;50.056;8.678;2023-01-01T04:34:11;22.30;;;13.37;;
5412;SDS011;2729;50.056;8.678;2023-01-01T04:36:37;25.03;;;12.73;;
5412;SDS011;2729;50.056;8.678;2023-01-01T04:39:03;23.70;;;11.00;;
5412;SDS011;2729;50.056;8.678;2023-01-01T04:41:30;28.40;;;12.60;;
5412;SDS011;2729;50.056;8.678;2023-01-01T04:43:56;23.37;;;11.47;;
5412;SDS011;2729;50.056;8.678;2023-01-01T04:46:23;22.63;;;12.07;;
5412;SDS011;2729;50.056;8.678;2023-01-01T04:48:49;20.57;;;11.50;;
5412;SDS011;2729;50.056;8.678;2023-01-01T04:51:16;21.13;;;11.20;;
5412;SDS011;2729;50.056;8.678;2023-01-01T04:53:44;17.60;;;10.00;;
5412;SDS011;2729;50.056;8.678;2023-01-01T04:56:11;18.30;;;10.30;;
5412;SDS011;2729;50.056;8.678;2023-01-01T04:58:42;19.53;;;9.97;;
5412;SDS011;2729;50.056;8.678;2023-01-01T05:01:19;16.67;;;10.53;;
5412;SDS011;2729;50.056;8.678;2023-01-01T05:03:47;15.33;;;9.00;;
5412;SDS011;2729;50.056;8.678;2023-01-01T05:06:14;16.10;;;9.70;;
5412;SDS011;2729;50.056;8.678;2023-01-01T05:08:42;13.93;;;8.70;;
5412;SDS011;2729;50.056;8.678;2023-01-01T05:11:11;14.37;;;8.90;;
5412;SDS011;2729;50.056;8.678;2023-01-01T05:13:40;18.17;;;8.80;;
5412;SDS011;2729;50.056;8.678;2023-01-01T05:16:09;13.27;;;7.57;;
5412;SDS011;2729;50.056;8.678;2023-01-01T05:18:37;12.37;;;7.93;;
5412;SDS011;2729;50.056;8.678;2023-01-01T05:21:04;17.50;;;7.27;;
5412;SDS011;2729;50.056;8.678;2023-01-01T05:23:32;13.50;;;7.43;;
5412;SDS011;2729;50.056;8.678;2023-01-01T05:25:58;17.00;;;7.47;;
5412;SDS011;2729;50.056;8.678;2023-01-01T05:28:24;15.67;;;7.93;;
5412;SDS011;2729;50.056;8.678;2023-01-01T05:30:50;15.87;;;7.77;;
5412;SDS011;2729;50.056;8.678;2023-01-01T05:33:17;13.63;;;7.33;;
5412;SDS011;2729;50.056;8.678;2023-01-01T05:35:43;18.13;;;8.20;;
5412;SDS011;2729;50.056;8.678;2023-01-01T05:38:09;12.80;;;6.97;;
5412;SDS011;2729;50.056;8.678;2023-01-01T05:40:38;10.87;;;6.77;;
5412;SDS011;2729;50.056;8.678;2023-01-01T05:43:07;18.43;;;6.87;;
5412;SDS011;2729;50.056;8.678;2023-01-01T05:45:33;10.47;;;6.30;;
5412;SDS011;2729;50.056;8.678;2023-01-01T05:47:59;9.27;;;6.07;;
5412;SDS011;2729;50.056;8.678;2023-01-01T05:50:25;12.27;;;6.80;;
5412;SDS011;2729;50.056;8.678;2023-01-01T05:52:51;13.50;;;6.37;;
5412;SDS011;2729;50.056;8.678;2023-01-01T05:55:17;11.23;;;6.37;;
5412;SDS011;2729;50.056;8.678;2023-01-01T05:57:43;11.23;;;5.73;;
5412;SDS011;2729;50.056;8.678;2023-01-01T06:00:09;11.60;;;6.70;;
5412;SDS011;2729;50.056;8.678;2023-01-01T06:02:36;11.67;;;6.33;;
5412;SDS011;2729;50.056;8.678;2023-01-01T06:05:04;9.80;;;6.27;;
5412;SDS011;2729;50.056;8.678;2023-01-01T06:07:30;10.90;;;7.13;;
5412;SDS011;2729;50.056;8.678;2023-01-01T06:09:56;16.60;;;7.10;;
5412;SDS011;2729;50.056;8.678;2023-01-01T06:12:22;9.40;;;5.90;;
5412;SDS011;2729;50.056;8.678;2023-01-01T06:14:48;15.20;;;5.70;;
5412;SDS011;2729;50.056;8.678;2023-01-01T06:17:14;9.07;;;5.83;;
5412;SDS011;2729;50.056;8.678;2023-01-01T06:19:40;8.70;;;5.90;;
5412;SDS011;2729;50.056;8.678;2023-01-01T06:22:05;10.57;;;6.10;;
5412;SDS011;2729;50.056;8.678;2023-01-01T06:24:31;9.07;;;5.53;;
5412;SDS011;2729;50.056;8.678;2023-01-01T06:26:57;8.60;;;4.40;;
5412;SDS011;2729;50.056;8.678;2023-01-01T06:29:23;8.10;;;5.43;;
5412;SDS011;2729;50.056;8.678;2023-01-01T06:31:49;8.47;;;5.37;;
5412;SDS011;2729;50.056;8.678;2023-01-01T06:34:15;9.67;;;5.57;;
5412;SDS011;2729;50.056;8.678;2023-01-01T06:36:41;9.37;;;5.07;;
5412;SDS011;2729;50.056;8.678;2023-01-01T06:39:07;8.73;;;4.70;;
5412;SDS011;2729;50.056;8.678;2023-01-01T06:41:33;8.70;;;4.73;;
5412;SDS011;2729;50.056;8.678;2023-01-01T06:43:59;8.40;;;4.67;;
5412;SDS011;2729;50.056;8.678;2023-01-01T06:46:27;10.43;;;4.60;;
5412;SDS011;2729;50.056;8.678;2023-01-01T06:48:56;7.63;;;4.90;;
5412;SDS011;2729;50.056;8.678;2023-01-01T06:51:25;9.80;;;4.60;;
5412;SDS011;2729;50.056;8.678;2023-01-01T06:53:53;7.73;;;4.60;;
5412;SDS011;2729;50.056;8.678;2023-01-01T06:56:19;10.07;;;4.77;;
5412;SDS011;2729;50.056;8.678;2023-01-01T06:58:45;5.60;;;3.80;;
5412;SDS011;2729;50.056;8.678;2023-01-01T07:01:16;5.37;;;4.40;;
5412;SDS011;2729;50.056;8.678;2023-01-01T07:03:49;6.80;;;4.23;;
5412;SDS011;2729;50.056;8.678;2023-01-01T07:06:16;11.50;;;4.63;;
5412;SDS011;2729;50.056;8.678;2023-01-01T07:08:42;5.97;;;4.03;;
5412;SDS011;2729;50.056;8.678;2023-01-01T07:11:08;6.43;;;4.00;;
5412;SDS011;2729;50.056;8.678;2023-01-01T07:13:34;5.70;;;3.90;;
5412;SDS011;2729;50.056;8.678;2023-01-01T07:16:00;9.07;;;4.10;;
5412;SDS011;2729;50.056;8.678;2023-01-01T07:18:26;4.47;;;3.27;;
5412;SDS011;2729;50.056;8.678;2023-01-01T07:20:53;7.50;;;3.80;;
5412;SDS011;2729;50.056;8.678;2023-01-01T07:23:21;4.53;;;3.43;;
5412;SDS011;2729;50.056;8.678;2023-01-01T07:25:47;6.37;;;4.17;;
5412;SDS011;2729;50.056;8.678;2023-01-01T07:28:15;6.07;;;3.00;;
5412;SDS011;2729;50.056;8.678;2023-01-01T07:30:41;5.37;;;3.90;;
5412;SDS011;2729;50.056;8.678;2023-01-01T07:33:14;6.90;;;3.57;;
5412;SDS011;2729;50.056;8.678;2023-01-01T07:35:42;5.87;;;3.57;;
5412;SDS011;2729;50.056;8.678;2023-01-01T07:38:14;6.10;;;3.50;;
5412;SDS011;2729;50.056;8.678;2023-01-01T07:40:40;7.47;;;3.73;;
5412;SDS011;2729;50.056;8.678;2023-01-01T07:43:08;6.43;;;4.00;;
5412;SDS011;2729;50.056;8.678;2023-01-01T07:45:34;7.43;;;3.60;;
5412;SDS011;2729;50.056;8.678;2023-01-01T07:48:00;8.03;;;3.40;;
5412;SDS011;2729;50.056;8.678;2023-01-01T07:50:28;9.37;;;3.30;;
5412;SDS011;2729;50.056;8.678;2023-01-01T07:52:56;5.90;;;3.57;;
5412;SDS011;2729;50.056;8.678;2023-01-01T07:55:22;7.23;;;3.53;;
5412;SDS011;2729;50.056;8.678;2023-01-01T07:57:48;5.20;;;2.77;;
5412;SDS011;2729;50.056;8.678;2023-01-01T08:00:15;7.60;;;3.13;;
5412;SDS011;2729;50.056;8.678;2023-01-01T08:02:43;4.47;;;2.50;;
5412;SDS011;2729;50.056;8.678;2023-01-01T08:05:09;5.63;;;2.80;;
5412;SDS011;2729;50.056;8.678;2023-01-01T08:07:35;4.67;;;3.10;;
5412;SDS011;2729;50.056;8.678;2023-01-01T08:10:02;6.50;;;3.10;;
5412;SDS011;2729;50.056;8.678;2023-01-01T08:12:32;3.97;;;2.90;;
5412;SDS011;2729;50.056;8.678;2023-01-01T08:14:58;4.43;;;3.13;;
5412;SDS011;2729;50.056;8.678;2023-01-01T08:17:24;12.70;;;2.97;;
5412;SDS011;2729;50.056;8.678;2023-01-01T08:19:50;4.07;;;3.00;;
5412;SDS011;2729;50.056;8.678;2023-01-01T08:22:17;2.67;;;2.47;;
5412;SDS011;2729;50.056;8.678;2023-01-01T08:24:43;4.20;;;2.90;;
5412;SDS011;2729;50.056;8.678;2023-01-01T08:27:10;4.10;;;2.87;;
5412;SDS011;2729;50.056;8.678;2023-01-01T08:29:38;3.40;;;2.80;;
5412;SDS011;2729;50.056;8.678;2023-01-01T08:32:04;2.90;;;2.60;;
5412;SDS011;2729;50.056;8.678;2023-01-01T08:34:30;6.27;;;2.90;;
5412;SDS011;2729;50.056;8.678;2023-01-01T08:36:56;5.23;;;2.50;;
5412;SDS011;2729;50.056;8.678;2023-01-01T08:39:22;5.97;;;3.10;;
5412;SDS011;2729;50.056;8.678;2023-01-01T08:41:48;8.47;;;3.03;;
5412;SDS011;2729;50.056;8.678;2023-01-01T08:44:13;4.53;;;2.90;;
5412;SDS011;2729;50.056;8.678;2023-01-01T08:46:39;5.40;;;3.03;;
5412;SDS011;2729;50.056;8.678;2023-01-01T08:49:05;3.60;;;2.70;;
5412;SDS011;2729;50.056;8.678;2023-01-01T08:51:31;2.60;;;2.30;;
5412;SDS011;2729;50.056;8.678;2023-01-01T08:53:57;2.77;;;2.47;;
5412;SDS011;2729;50.056;8.678;2023-01-01T08:56:23;6.90;;;2.03;;
5412;SDS011;2729;50.056;8.678;2023-01-01T08:58:49;3.97;;;2.53;;
5412;SDS011;2729;50.056;8.678;2023-01-01T09:01:15;6.77;;;3.07;;
5412;SDS011;2729;50.056;8.678;2023-01-01T09:03:42;2.60;;;2.20;;
5412;SDS011;2729;50.056;8.678;2023-01-01T09:06:08;4.37;;;2.60;;
5412;SDS011;2729;50.056;8.678;2023-01-01T09:08:34;4.17;;;2.90;;
5412;SDS011;2729;50.056;8.678;2023-01-01T09:11:01;12.43;;;2.37;;
5412;SDS011;2729;50.056;8.678;2023-01-01T09:13:27;6.93;;;2.60;;
5412;SDS011;2729;50.056;8.678;2023-01-01T09:15:54;5.73;;;2.60;;
5412;SDS011;2729;50.056;8.678;2023-01-01T09:18:20;4.63;;;2.83;;
5412;SDS011;2729;50.056;8.678;2023-01-01T09:20:46;2.40;;;2.20;;
5412;SDS011;2729;50.056;8.678;2023-01-01T09:23:12;2.73;;;2.40;;
5412;SDS011;2729;50.056;8.678;2023-01-01T09:25:38;3.77;;;2.50;;
5412;SDS011;2729;50.056;8.678;2023-01-01T09:28:10;3.03;;;2.47;;
5412;SDS011;2729;50.056;8.678;2023-01-01T09:30:37;5.37;;;2.30;;
5412;SDS011;2729;50.056;8.678;2023-01-01T09:33:03;3.60;;;2.30;;
5412;SDS011;2729;50.056;8.678;2023-01-01T09:38:36;7.10;;;2.73;;
5412;SDS011;2729;50.056;8.678;2023-01-01T09:41:11;3.83;;;2.00;;
5412;SDS011;2729;50.056;8.678;2023-01-01T09:46:21;2.17;;;2.00;;
5412;SDS011;2729;50.056;8.678;2023-01-01T09:48:54;8.00;;;2.70;;
5412;SDS011;2729;50.056;8.678;2023-01-01T09:51:23;3.00;;;2.30;;
5412;SDS011;2729;50.056;8.678;2023-01-01T09:53:55;2.93;;;1.87;;
5412;SDS011;2729;50.056;8.678;2023-01-01T09:56:26;2.67;;;2.33;;
5412;SDS011;2729;50.056;8.678;2023-01-01T09:58:56;5.27;;;1.90;;
5412;SDS011;2729;50.056;8.678;2023-01-01T10:01:30;3.37;;;1.77;;
5412;SDS011;2729;50.056;8.678;2023-01-01T10:06:42;3.03;;;2.03;;
5412;SDS011;2729;50.056;8.678;2023-01-01T10:09:16;3.93;;;2.27;;
5412;SDS011;2729;50.056;8.678;2023-01-01T10:12:15;3.07;;;2.00;;
5412;SDS011;2729;50.056;8.678;2023-01-01T10:14:54;6.53;;;1.77;;
5412;SDS011;2729;50.056;8.678;2023-01-01T10:17:33;3.07;;;2.07;;
5412;SDS011;2729;50.056;8.678;2023-01-01T10:20:14;3.70;;;1.93;;
5412;SDS011;2729;50.056;8.678;2023-01-01T10:22:45;4.30;;;2.20;;
5412;SDS011;2729;50.056;8.678;2023-01-01T10:25:23;5.60;;;2.07;;
5412;SDS011;2729;50.056;8.678;2023-01-01T10:27:58;4.03;;;2.13;;
5412;SDS011;2729;50.056;8.678;2023-01-01T10:30:27;8.63;;;1.93;;
5412;SDS011;2729;50.056;8.678;2023-01-01T10:32:54;6.43;;;2.53;;
5412;SDS011;2729;50.056;8.678;2023-01-01T10:35:40;2.03;;;1.77;;
5412;SDS011;2729;50.056;8.678;2023-01-01T10:38:09;3.50;;;2.40;;
5412;SDS011;2729;50.056;8.678;2023-01-01T10:40:46;2.30;;;1.63;;
5412;SDS011;2729;50.056;8.678;2023-01-01T10:43:12;2.40;;;1.80;;
5412;SDS011;2729;50.056;8.678;2023-01-01T10:45:56;2.50;;;1.60;;
5412;SDS011;2729;50.056;8.678;2023-01-01T10:48:26;3.30;;;1.40;;
5412;SDS011;2729;50.056;8.678;2023-01-01T10:51:01;4.23;;;2.13;;
5412;SDS011;2729;50.056;8.678;2023-01-01T11:06:22;4.20;;;1.80;;
5412;SDS011;2729;50.056;8.678;2023-01-01T11:08:51;3.17;;;2.00;;
5412;SDS011;2729;50.056;8.678;2023-01-01T11:11:41;2.03;;;1.90;;
5412;SDS011;2729;50.056;8.678;2023-01-01T11:14:17;3.23;;;1.90;;
5412;SDS011;2729;50.056;8.678;2023-01-01T11:16:45;8.37;;;2.33;;
5412;SDS011;2729;50.056;8.678;2023-01-01T11:21:49;4.90;;;1.73;;
5412;SDS011;2729;50.056;8.678;2023-01-01T11:24:16;1.70;;;1.60;;
5412;SDS011;2729;50.056;8.678;2023-01-01T11:26:51;7.10;;;2.37;;
5412;SDS011;2729;50.056;8.678;2023-01-01T11:29:27;1.70;;;1.60;;
5412;SDS011;2729;50.056;8.678;2023-01-01T11:31:54;2.20;;;2.00;;
5412;SDS011;2729;50.056;8.678;2023-01-01T11:34:29;4.23;;;2.20;;
5412;SDS011;2729;50.056;8.678;2023-01-01T11:37:32;2.97;;;2.53;;
5412;SDS011;2729;50.056;8.678;2023-01-01T11:39:58;1.90;;;1.80;;
5412;SDS011;2729;50.056;8.678;2023-01-01T11:42:27;3.80;;;2.70;;
5412;SDS011;2729;50.056;8.678;2023-01-01T11:44:56;4.53;;;2.23;;
5412;SDS011;2729;50.056;8.678;2023-01-01T11:47:27;2.27;;;2.17;;
5412;SDS011;2729;50.056;8.678;2023-01-01T11:49:56;2.33;;;1.83;;
5412;SDS011;2729;50.056;8.678;2023-01-01T11:52:28;3.03;;;2.00;;
5412;SDS011;2729;50.056;8.678;2023-01-01T11:55:01;3.43;;;1.93;;
5412;SDS011;2729;50.056;8.678;2023-01-01T11:57:34;4.30;;;2.40;;
5412;SDS011;2729;50.056;8.678;2023-01-01T12:00:03;3.60;;;2.40;;
5412;SDS011;2729;50.056;8.678;2023-01-01T12:02:49;2.30;;;1.93;;
5412;SDS011;2729;50.056;8.678;2023-01-01T12:05:39;1.97;;;1.77;;
5412;SDS011;2729;50.056;8.678;2023-01-01T12:08:11;4.60;;;2.00;;
5412;SDS011;2729;50.056;8.678;2023-01-01T12:10:49;2.17;;;1.90;;
5412;SDS011;2729;50.056;8.678;2023-01-01T12:13:23;2.03;;;1.63;;
5412;SDS011;2729;50.056;8.678;2023-01-01T12:16:06;7.10;;;1.60;;
5412;SDS011;2729;50.056;8.678;2023-01-01T12:18:44;5.80;;;2.20;;
5412;SDS011;2729;50.056;8.678;2023-01-01T12:21:26;2.00;;;1.80;;
5412;SDS011;2729;50.056;8.678;2023-01-01T12:23:53;11.37;;;1.93;;
5412;SDS011;2729;50.056;8.678;2023-01-01T12:26:23;1.90;;;1.73;;
5412;SDS011;2729;50.056;8.678;2023-01-01T12:29:01;5.07;;;2.00;;
5412;SDS011;2729;50.056;8.678;2023-01-01T12:31:58;4.40;;;1.93;;
5412;SDS011;2729;50.056;8.678;2023-01-01T12:43:01;1.87;;;1.50;;
5412;SDS011;2729;50.056;8.678;2023-01-01T12:45:36;4.90;;;1.80;;
5412;SDS011;2729;50.056;8.678;2023-01-01T12:57:25;1.77;;;1.67;;
5412;SDS011;2729;50.056;8.678;2023-01-01T12:59:56;1.80;;;1.70;;
5412;SDS011;2729;50.056;8.678;2023-01-01T13:02:29;3.10;;;2.30;;
5412;SDS011;2729;50.056;8.678;2023-01-01T13:05:06;10.47;;;1.90;;
5412;SDS011;2729;50.056;8.678;2023-01-01T13:07:42;3.60;;;1.40;;
5412;SDS011;2729;50.056;8.678;2023-01-01T13:12:50;3.53;;;1.97;;
5412;SDS011;2729;50.056;8.678;2023-01-01T13:18:07;7.83;;;1.90;;
5412;SDS011;2729;50.056;8.678;2023-01-01T13:20:45;4.50;;;1.37;;
5412;SDS011;2729;50.056;8.678;2023-01-01T13:29:11;3.90;;;1.70;;
5412;SDS011;2729;50.056;8.678;2023-01-01T13:39:54;3.00;;;1.60;;
5412;SDS011;2729;50.056;8.678;2023-01-01T13:45:28;1.40;;;1.30;;
5412;SDS011;2729;50.056;8.678;2023-01-01T13:48:02;3.57;;;1.97;;
5412;SDS011;2729;50.056;8.678;2023-01-01T13:50:48;3.27;;;1.87;;
5412;SDS011;2729;50.056;8.678;2023-01-01T14:05:03;1.93;;;1.80;;
5412;SDS011;2729;50.056;8.678;2023-01-01T14:07:46;5.40;;;1.53;;
5412;SDS011;2729;50.056;8.678;2023-01-01T14:10:20;1.40;;;1.30;;
5412;SDS011;2729;50.056;8.678;2023-01-01T14:15:32;1.97;;;1.47;;
5412;SDS011;2729;50.056;8.678;2023-01-01T14:18:01;5.40;;;1.70;;
5412;SDS011;2729;50.056;8.678;2023-01-01T14:20:32;4.23;;;1.70;;
5412;SDS011;2729;50.056;8.678;2023-01-01T14:23:08;2.93;;;1.87;;
5412;SDS011;2729;50.056;8.678;2023-01-01T14:25:40;2.27;;;1.73;;
5412;SDS011;2729;50.056;8.678;2023-01-01T14:28:19;3.33;;;1.80;;
5412;SDS011;2729;50.056;8.678;2023-01-01T14:30:51;4.00;;;1.83;;
5412;SDS011;2729;50.056;8.678;2023-01-01T14:33:22;3.13;;;2.00;;
5412;SDS011;2729;50.056;8.678;2023-01-01T14:35:56;2.00;;;1.80;;
5412;SDS011;2729;50.056;8.678;2023-01-01T14:38:25;3.90;;;2.30;;
5412;SDS011;2729;50.056;8.678;2023-01-01T14:41:00;8.50;;;2.33;;
5412;SDS011;2729;50.056;8.678;2023-01-01T14:43:30;6.40;;;2.37;;
5412;SDS011;2729;50.056;8.678;2023-01-01T14:45:56;6.67;;;2.93;;
5412;SDS011;2729;50.056;8.678;2023-01-01T14:48:22;6.90;;;2.73;;
5412;SDS011;2729;50.056;8.678;2023-01-01T14:50:49;5.33;;;2.83;;
5412;SDS011;2729;50.056;8.678;2023-01-01T14:53:17;4.90;;;2.93;;
5412;SDS011;2729;50.056;8.678;2023-01-01T14:55:47;5.80;;;2.63;;
5412;SDS011;2729;50.056;8.678;2023-01-01T14:58:17;9.40;;;2.57;;
5412;SDS011;2729;50.056;8.678;2023-01-01T15:00:47;5.77;;;2.57;;
5412;SDS011;2729;50.056;8.678;2023-01-01T15:03:17;5.73;;;3.33;;
5412;SDS011;2729;50.056;8.678;2023-01-01T15:05:46;4.00;;;2.40;;
5412;SDS011;2729;50.056;8.678;2023-01-01T15:08:26;2.50;;;1.77;;
5412;SDS011;2729;50.056;8.678;2023-01-01T15:10:52;4.97;;;2.17;;
5412;SDS011;2729;50.056;8.678;2023-01-01T15:13:25;10.63;;;2.30;;
5412;SDS011;2729;50.056;8.678;2023-01-01T15:15:53;3.20;;;1.63;;
5412;SDS011;2729;50.056;8.678;2023-01-01T15:18:36;8.03;;;2.03;;
5412;SDS011;2729;50.056;8.678;2023-01-01T15:21:03;2.97;;;1.80;;
5412;SDS011;2729;50.056;8.678;2023-01-01T15:23:34;4.43;;;2.60;;
5412;SDS011;2729;50.056;8.678;2023-01-01T15:26:01;3.00;;;2.10;;
5412;SDS011;2729;50.056;8.678;2023-01-01T15:28:32;2.60;;;1.70;;
5412;SDS011;2729;50.056;8.678;2023-01-01T15:30:58;3.80;;;2.10;;
5412;SDS011;2729;50.056;8.678;2023-01-01T15:33:24;2.07;;;1.90;;
5412;SDS011;2729;50.056;8.678;2023-01-01T15:35:50;8.60;;;2.70;;
5412;SDS011;2729;50.056;8.678;2023-01-01T15:38:22;4.17;;;2.60;;
5412;SDS011;2729;50.056;8.678;2023-01-01T15:40:50;3.70;;;2.33;;
5412;SDS011;2729;50.056;8.678;2023-01-01T15:43:18;4.10;;;1.83;;
5412;SDS011;2729;50.056;8.678;2023-01-01T15:46:13;3.43;;;2.30;;
5412;SDS011;2729;50.056;8.678;2023-01-01T15:48:48;4.97;;;3.33;;
5412;SDS011;2729;50.056;8.678;2023-01-01T15:51:16;5.77;;;2.43;;
5412;SDS011;2729;50.056;8.678;2023-01-01T15:53:49;5.50;;;2.33;;
5412;SDS011;2729;50.056;8.678;2023-01-01T15:56:20;5.40;;;2.83;;
5412;SDS011;2729;50.056;8.678;2023-01-01T16:01:21;6.33;;;2.70;;
5412;SDS011;2729;50.056;8.678;2023-01-01T16:03:50;7.53;;;2.70;;
5412;SDS011;2729;50.056;8.678;2023-01-01T16:06:24;4.43;;;3.67;;
5412;SDS011;2729;50.056;8.678;2023-01-01T16:08:50;3.60;;;2.80;;
5412;SDS011;2729;50.056;8.678;2023-01-01T16:11:16;5.00;;;3.30;;
5412;SDS011;2729;50.056;8.678;2023-01-01T16:13:42;7.53;;;2.90;;
5412;SDS011;2729;50.056;8.678;2023-01-01T16:16:18;7.30;;;3.07;;
5412;SDS011;2729;50.056;8.678;2023-01-01T16:18:49;5.60;;;3.10;;
5412;SDS011;2729;50.056;8.678;2023-01-01T16:21:17;14.47;;;3.47;;
5412;SDS011;2729;50.056;8.678;2023-01-01T16:23:44;12.33;;;2.80;;
5412;SDS011;2729;50.056;8.678;2023-01-01T16:26:10;3.70;;;2.87;;
5412;SDS011;2729;50.056;8.678;2023-01-01T16:28:36;7.20;;;3.17;;
5412;SDS011;2729;50.056;8.678;2023-01-01T16:31:01;7.23;;;2.53;;
5412;SDS011;2729;50.056;8.678;2023-01-01T16:33:27;5.17;;;3.17;;
5412;SDS011;2729;50.056;8.678;2023-01-01T16:35:53;5.80;;;2.87;;
5412;SDS011;2729;50.056;8.678;2023-01-01T16:38:19;3.80;;;2.70;;
5412;SDS011;2729;50.056;8.678;2023-01-01T16:40:45;6.50;;;3.20;;
5412;SDS011;2729;50.056;8.678;2023-01-01T16:43:15;12.93;;;3.30;;
5412;SDS011;2729;50.056;8.678;2023-01-01T16:45:42;12.13;;;3.50;;
5412;SDS011;2729;50.056;8.678;2023-01-01T16:48:08;5.20;;;2.87;;
5412;SDS011;2729;50.056;8.678;2023-01-01T16:50:34;6.50;;;3.10;;
5412;SDS011;2729;50.056;8.678;2023-01-01T16:53:00;9.90;;;3.63;;
5412;SDS011;2729;50.056;8.678;2023-01-01T16:55:26;6.67;;;3.80;;
5412;SDS011;2729;50.056;8.678;2023-01-01T16:57:52;10.43;;;4.30;;
5412;SDS011;2729;50.056;8.678;2023-01-01T17:00:18;3.63;;;3.30;;
5412;SDS011;2729;50.056;8.678;2023-01-01T17:02:47;6.57;;;3.87;;
5412;SDS011;2729;50.056;8.678;2023-01-01T17:05:13;18.83;;;4.00;;
5412;SDS011;2729;50.056;8.678;2023-01-01T17:07:39;7.50;;;4.20;;
5412;SDS011;2729;50.056;8.678;2023-01-01T17:10:05;8.77;;;4.27;;